Time;durP1;ratioP1;P1;durP2;ratioP2;P2;SDS_P1;SDS_P2;PMS_P1;PMS_P2;Temp;Humidity;BMP_temperature;BMP_pressure;BME280_temperature;BME280_humidity;BME280_pressure;Samples;Min_cycle;Max_cycle;Signal;HPM_P1;HPM_P2
2021/05/19 00:00:18;;;;;;;1999.90;999.90;;;10.70;99.90;;;;;;5093096;28;20183;-55
2021/05/19 00:02:45;;;;;;;1999.90;999.90;;;10.70;99.90;;;;;;5093138;28;20202;-56
2021/05/19 00:05:12;;;;;;;1999.90;999.90;;;10.70;99.90;;;;;;5093113;28;20172;-56
2021/05/19 00:07:39;;;;;;;1999.90;999.90;;;10.60;99.90;;;;;;5092984;28;20485;-55
2021/05/19 00:10:09;;;;;;;1999.90;999.90;;;10.60;99.90;;;;;;5093052;28;20168;-53
2021/05/19 00:12:37;;;;;;;1999.90;999.90;;;10.50;99.90;;;;;;5093058;28;20160;-54
2021/05/19 00:15:05;;;;;;;1999.90;999.90;;;10.50;99.90;;;;;;5093044;28;20669;-59
2021/05/19 00:17:41;;;;;;;1999.90;999.90;;;10.40;99.90;;;;;;5093115;28;20168;-58
2021/05/19 00:20:09;;;;;;;1999.90;999.90;;;10.40;99.90;;;;;;5092988;28;20163;-58
2021/05/19 00:22:36;;;;;;;1999.90;999.90;;;10.30;99.90;;;;;;5093062;28;20203;-52
2021/05/19 00:25:04;;;;;;;1999.90;999.90;;;10.30;99.90;;;;;;5092888;28;20227;-57
2021/05/19 00:27:31;;;;;;;1999.90;999.90;;;10.40;99.90;;;;;;5092987;28;20171;-57
2021/05/19 00:29:57;;;;;;;1999.90;999.90;;;10.20;99.90;;;;;;5092873;28;20176;-57
2021/05/19 00:32:24;;;;;;;1999.90;999.90;;;10.10;99.90;;;;;;5092897;28;20618;-58
2021/05/19 00:34:51;;;;;;;1999.90;999.90;;;10.20;99.90;;;;;;5092718;28;20199;-58
2021/05/19 00:37:18;;;;;;;1999.90;999.90;;;10.20;99.90;;;;;;5096403;28;20630;-58
2021/05/19 00:39:46;;;;;;;1999.90;999.90;;;10.20;99.90;;;;;;5096957;28;20255;-58
2021/05/19 00:42:14;;;;;;;1999.90;999.90;;;10.10;99.90;;;;;;5096846;28;20618;-58
2021/05/19 00:44:42;;;;;;;1999.90;999.90;;;10.20;99.90;;;;;;5096816;28;20626;-57
2021/05/19 00:47:09;;;;;;;1999.90;999.90;;;10.10;99.90;;;;;;5096729;28;20168;-57
2021/05/19 00:49:36;;;;;;;1999.90;999.90;;;10.00;99.90;;;;;;5096820;28;20171;-58
2021/05/19 00:52:03;;;;;;;1999.90;999.90;;;10.00;99.90;;;;;;5096742;28;20660;-57
2021/05/19 00:54:30;;;;;;;1999.90;999.90;;;10.00;99.90;;;;;;5096530;28;20199;-58
2021/05/19 00:56:56;;;;;;;1999.90;999.90;;;10.00;99.90;;;;;;5096434;28;20175;-58
2021/05/19 00:59:23;;;;;;;1999.90;999.90;;;10.00;99.90;;;;;;5096509;28;20164;-56
2021/05/19 01:01:50;;;;;;;1999.90;999.90;;;10.00;99.90;;;;;;5096229;28;20168;-57
2021/05/19 01:04:17;;;;;;;1999.90;999.90;;;10.10;99.90;;;;;;5096368;28;20533;-56
2021/05/19 01:06:52;;;;;;;1999.90;999.90;;;10.10;99.90;;;;;;5096282;28;20187;-52
2021/05/19 01:09:37;;;;;;;1999.90;999.90;;;10.10;99.90;;;;;;5096095;28;20235;-57
2021/05/19 01:12:09;;;;;;;1999.90;999.90;;;10.20;99.90;;;;;;5096409;28;20197;-53
2021/05/19 01:14:36;;;;;;;1999.90;999.90;;;10.10;99.90;;;;;;5096375;28;20187;-56
2021/05/19 01:17:04;;;;;;;1999.90;999.90;;;10.10;99.90;;;;;;5096065;28;20621;-53
2021/05/19 01:19:31;;;;;;;1999.90;999.90;;;10.10;99.90;;;;;;5096007;28;20701;-55
2021/05/19 01:22:25;;;;;;;1999.90;999.90;;;10.00;99.90;;;;;;5095931;28;20167;-56
2021/05/19 01:24:56;;;;;;;1999.90;999.90;;;10.00;99.90;;;;;;5095757;28;20249;-54
2021/05/19 01:27:25;;;;;;;1999.90;999.90;;;9.90;99.90;;;;;;5096040;28;20152;-55
2021/05/19 01:29:54;;;;;;;1999.90;999.90;;;10.00;99.90;;;;;;5095962;28;20164;-56
2021/05/19 01:32:22;;;;;;;1999.90;999.90;;;9.90;99.90;;;;;;5095893;28;20168;-56
2021/05/19 01:34:49;;;;;;;1999.90;999.90;;;9.90;99.90;;;;;;5095777;28;20200;-56
2021/05/19 01:37:17;;;;;;;1999.90;999.90;;;9.80;99.90;;;;;;5095848;28;20156;-57
2021/05/19 01:39:45;;;;;;;1999.90;999.90;;;9.70;99.90;;;;;;5095790;28;20626;-57
2021/05/19 01:42:12;;;;;;;1999.90;999.90;;;9.60;99.90;;;;;;5095697;28;20163;-55
2021/05/19 01:44:40;;;;;;;1999.90;999.90;;;9.60;99.90;;;;;;5095810;28;20164;-57
2021/05/19 01:47:08;;;;;;;1999.90;999.90;;;9.60;99.90;;;;;;5095250;28;20164;-55
2021/05/19 01:49:44;;;;;;;1999.90;999.90;;;9.70;99.90;;;;;;5095494;28;20221;-57
2021/05/19 01:52:12;;;;;;;1999.90;999.90;;;9.60;99.90;;;;;;5095616;28;20187;-56
2021/05/19 01:54:42;;;;;;;1999.90;999.90;;;9.50;99.90;;;;;;5095422;28;20492;-55
2021/05/19 01:57:10;;;;;;;1999.90;999.90;;;9.40;99.90;;;;;;5095467;28;20559;-55
2021/05/19 01:59:37;;;;;;;1999.90;999.90;;;9.50;99.90;;;;;;5095427;28;20167;-58
2021/05/19 02:02:04;;;;;;;1999.90;999.90;;;9.50;99.90;;;;;;5095279;28;20171;-57
2021/05/19 02:04:31;;;;;;;1999.90;999.90;;;9.60;99.90;;;;;;5095287;28;20207;-56
2021/05/19 02:06:59;;;;;;;1999.90;999.90;;;9.80;99.90;;;;;;5095203;28;20166;-56
2021/05/19 02:09:27;;;;;;;1999.90;999.90;;;9.80;99.90;;;;;;5095141;28;20247;-55
2021/05/19 02:11:54;;;;;;;1999.90;999.90;;;9.90;99.90;;;;;;5095177;28;20728;-56
2021/05/19 02:14:22;;;;;;;1999.90;999.90;;;10.10;99.90;;;;;;5094931;28;20279;-56
2021/05/19 02:16:49;;;;;;;1999.90;999.90;;;10.10;99.90;;;;;;5095088;28;20247;-55
2021/05/19 02:19:16;;;;;;;1999.90;999.90;;;10.20;99.90;;;;;;5095013;28;20174;-57
2021/05/19 02:21:44;;;;;;;1999.90;999.90;;;10.30;99.90;;;;;;5094996;28;20275;-53
2021/05/19 02:24:12;;;;;;;1999.90;999.90;;;10.40;99.90;;;;;;5094811;28;20238;-56
2021/05/19 02:26:40;;;;;;;1999.90;999.90;;;10.30;99.90;;;;;;5095150;28;20167;-57
2021/05/19 02:29:08;;;;;;;1999.90;999.90;;;10.20;99.90;;;;;;5094792;28;20164;-57
2021/05/19 02:31:36;;;;;;;1999.90;999.90;;;10.20;99.90;;;;;;5094742;28;20168;-56
2021/05/19 02:34:03;;;;;;;1999.90;999.90;;;10.10;99.90;;;;;;5094607;28;20195;-55
2021/05/19 02:36:30;;;;;;;1999.90;999.90;;;10.00;99.90;;;;;;5094664;28;20164;-56
2021/05/19 02:38:57;;;;;;;1999.90;999.90;;;9.90;99.90;;;;;;5094548;28;20191;-56
2021/05/19 02:41:25;;;;;;;1999.90;999.90;;;9.80;99.90;;;;;;5094542;28;20560;-55
2021/05/19 02:43:52;;;;;;;1999.90;999.90;;;9.70;99.90;;;;;;5094465;28;20167;-55
2021/05/19 02:46:19;;;;;;;1999.90;999.90;;;9.70;99.90;;;;;;5094460;28;20156;-55
2021/05/19 02:48:45;;;;;;;1999.90;999.90;;;9.60;99.90;;;;;;5094476;28;20167;-54
2021/05/19 02:51:12;;;;;;;1999.90;999.90;;;9.60;99.90;;;;;;5094452;28;20160;-56
2021/05/19 02:53:40;;;;;;;1999.90;999.90;;;9.50;99.90;;;;;;5094299;28;20168;-53
2021/05/19 02:56:07;;;;;;;1999.90;999.90;;;9.50;99.90;;;;;;5094304;28;20164;-57
2021/05/19 02:58:33;;;;;;;1999.90;999.90;;;9.40;99.90;;;;;;5093452;28;20225;-56
2021/05/19 03:01:00;;;;;;;1999.90;999.90;;;9.40;99.90;;;;;;5094189;28;20172;-55
2021/05/19 03:03:27;;;;;;;1999.90;999.90;;;9.30;99.90;;;;;;5093904;28;20175;-54
2021/05/19 03:05:54;;;;;;;1999.90;999.90;;;9.40;99.90;;;;;;5094177;28;20496;-55
2021/05/19 03:08:21;;;;;;;1999.90;999.90;;;9.40;99.90;;;;;;5093986;28;20160;-56
2021/05/19 03:10:48;;;;;;;1999.90;999.90;;;9.30;99.90;;;;;;5094036;28;20164;-56
2021/05/19 03:13:15;;;;;;;1999.90;999.90;;;9.30;99.90;;;;;;5094068;28;20709;-55
2021/05/19 03:15:41;;;;;;;1999.90;999.90;;;9.30;99.90;;;;;;5093731;28;20195;-56
2021/05/19 03:18:08;;;;;;;1999.90;999.90;;;9.30;99.90;;;;;;5093839;28;20218;-54
2021/05/19 03:20:35;;;;;;;1999.90;999.90;;;9.30;99.90;;;;;;5093715;28;20524;-56
2021/05/19 03:23:02;;;;;;;1999.90;999.90;;;9.30;99.90;;;;;;5093788;28;20197;-55
2021/05/19 03:25:29;;;;;;;1999.90;999.90;;;9.30;99.90;;;;;;5093607;28;20708;-56
2021/05/19 03:27:56;;;;;;;1999.90;999.90;;;9.30;99.90;;;;;;5093718;28;20168;-55
2021/05/19 03:30:23;;;;;;;1999.90;999.90;;;9.30;99.90;;;;;;5093740;28;20181;-56
2021/05/19 03:32:50;;;;;;;1999.90;999.90;;;9.20;99.90;;;;;;5093654;28;20164;-56
2021/05/19 03:35:17;;;;;;;1999.90;999.90;;;9.30;99.90;;;;;;5093643;28;20286;-56
2021/05/19 03:37:45;;;;;;;1999.90;999.90;;;9.30;99.90;;;;;;5093483;28;20164;-54
2021/05/19 03:40:13;;;;;;;1999.90;999.90;;;9.20;99.90;;;;;;5093426;28;20237;-56
2021/05/19 03:42:41;;;;;;;1999.90;999.90;;;9.20;99.90;;;;;;5093458;28;20168;-54
2021/05/19 03:45:11;;;;;;;1999.90;999.90;;;9.10;99.90;;;;;;5093459;28;20172;-55
2021/05/19 03:47:38;;;;;;;1999.90;999.90;;;9.00;99.90;;;;;;5093372;28;20168;-55
2021/05/19 03:50:07;;;;;;;1999.90;999.90;;;9.00;99.90;;;;;;5093286;28;20171;-55
2021/05/19 03:52:34;;;;;;;1999.90;999.90;;;9.00;99.90;;;;;;5093311;28;20217;-53
2021/05/19 03:55:01;;;;;;;1999.90;999.90;;;9.00;99.90;;;;;;5093154;28;20684;-55
2021/05/19 03:57:28;;;;;;;1999.90;999.90;;;9.10;99.90;;;;;;5093324;28;20252;-55
2021/05/19 03:59:55;;;;;;;1999.90;999.90;;;9.10;99.90;;;;;;5093239;28;20721;-55
2021/05/19 04:02:22;;;;;;;1999.90;999.90;;;9.10;99.90;;;;;;5093140;28;20202;-56
2021/05/19 04:04:49;;;;;;;1999.90;999.90;;;9.20;99.90;;;;;;5093257;28;20168;-53
2021/05/19 04:07:16;;;;;;;1999.90;999.90;;;9.20;99.90;;;;;;5093023;28;20172;-53
2021/05/19 04:09:43;;;;;;;1999.90;999.90;;;9.10;99.90;;;;;;5092884;28;20543;-53
2021/05/19 04:12:10;;;;;;;1999.90;999.90;;;9.10;99.90;;;;;;5093098;28;20171;-53
2021/05/19 04:14:36;;;;;;;1999.90;999.90;;;9.00;99.90;;;;;;5092913;28;20218;-52
2021/05/19 04:17:03;;;;;;;1999.90;999.90;;;9.00;99.90;;;;;;5092859;28;20176;-54
2021/05/19 04:19:30;;;;;;;1999.90;999.90;;;9.10;99.90;;;;;;5092940;28;20615;-54
2021/05/19 04:21:57;;;;;;;1999.90;999.90;;;9.10;99.90;;;;;;5092890;28;20179;-54
2021/05/19 04:24:24;;;;;;;1999.90;999.90;;;9.00;99.90;;;;;;5092822;28;20231;-55
2021/05/19 04:26:51;;;;;;;1999.90;999.90;;;9.10;99.90;;;;;;5092925;28;20172;-54
2021/05/19 04:29:18;;;;;;;1999.90;999.90;;;9.00;99.90;;;;;;5092835;28;20193;-55
2021/05/19 04:31:45;;;;;;;1999.90;999.90;;;9.20;99.90;;;;;;5092801;28;20305;-55
2021/05/19 04:34:12;;;;;;;1999.90;999.90;;;9.20;99.90;;;;;;5092779;28;20329;-56
2021/05/19 04:36:39;;;;;;;1999.90;999.90;;;9.20;99.90;;;;;;5092759;28;20172;-53
2021/05/19 04:39:06;;;;;;;1999.90;999.90;;;9.10;99.90;;;;;;5092829;28;20171;-53
2021/05/19 04:41:33;;;;;;;1999.90;999.90;;;9.10;99.90;;;;;;5092710;28;20200;-55
2021/05/19 04:43:59;;;;;;;1999.90;999.90;;;9.00;99.90;;;;;;5092561;28;20180;-55
2021/05/19 04:46:26;;;;;;;1999.90;999.90;;;8.80;99.90;;;;;;5092679;28;20199;-55
2021/05/19 04:48:58;;;;;;;1999.90;999.90;;;8.80;99.90;;;;;;5092775;28;20187;-55
2021/05/19 04:51:27;;;;;;;1999.90;999.90;;;8.80;99.90;;;;;;5092713;28;20152;-56
2021/05/19 04:53:54;;;;;;;1999.90;999.90;;;8.70;99.90;;;;;;5092672;28;20164;-53
2021/05/19 04:56:21;;;;;;;1999.90;999.90;;;8.80;99.90;;;;;;5092592;28;20176;-55
2021/05/19 04:58:48;;;;;;;1999.90;999.90;;;8.70;99.90;;;;;;5092571;28;20242;-54
2021/05/19 05:01:15;;;;;;;1999.90;999.90;;;8.80;99.90;;;;;;5092447;28;20164;-53
2021/05/19 05:03:41;;;;;;;1999.90;999.90;;;8.70;99.90;;;;;;5092530;28;20247;-56
2021/05/19 05:06:08;;;;;;;1999.90;999.90;;;8.70;99.90;;;;;;5092533;28;20167;-55
2021/05/19 05:08:35;;;;;;;1999.90;999.90;;;8.60;99.90;;;;;;5092500;28;20653;-55
2021/05/19 05:11:02;;;;;;;1999.90;999.90;;;8.60;99.90;;;;;;5092410;28;20177;-56
2021/05/19 05:13:29;;;;;;;1999.90;999.90;;;8.50;99.90;;;;;;5092382;28;20171;-56
2021/05/19 05:15:55;;;;;;;1999.90;999.90;;;8.60;99.90;;;;;;5092443;28;20192;-56
2021/05/19 05:18:22;;;;;;;1999.90;999.90;;;8.60;99.90;;;;;;5092299;28;20168;-56
2021/05/19 05:20:49;;;;;;;1999.90;999.90;;;8.60;99.90;;;;;;5092328;28;20190;-55
2021/05/19 05:23:16;;;;;;;1999.90;999.90;;;8.60;99.90;;;;;;5095451;28;20512;-56
2021/05/19 05:25:43;;;;;;;1999.90;999.90;;;8.60;99.90;;;;;;5095735;28;20244;-53
2021/05/19 05:28:10;;;;;;;1999.90;999.90;;;8.60;99.90;;;;;;5077811;28;20179;-57
2021/05/19 05:30:37;;;;;;;1999.90;999.90;;;8.60;99.90;;;;;;5095792;28;20175;-54
2021/05/19 05:33:04;;;;;;;1999.90;999.90;;;8.60;99.90;;;;;;5095889;28;20629;-55
2021/05/19 05:35:30;;;;;;;1999.90;999.90;;;8.50;99.90;;;;;;5095708;28;20210;-57
2021/05/19 05:37:57;;;;;;;1999.90;999.90;;;8.40;99.90;;;;;;5095795;28;20160;-53
2021/05/19 05:40:24;;;;;;;1999.90;999.90;;;8.40;99.90;;;;;;5095613;28;20254;-57
2021/05/19 05:42:51;;;;;;;1999.90;999.90;;;8.50;99.90;;;;;;5095442;28;20224;-56
2021/05/19 05:45:18;;;;;;;1999.90;999.90;;;8.40;99.90;;;;;;5095404;28;20649;-56
2021/05/19 05:47:44;;;;;;;1999.90;999.90;;;8.40;99.90;;;;;;5095448;28;20164;-56
2021/05/19 05:50:12;;;;;;;1999.90;999.90;;;8.50;99.90;;;;;;5095362;28;20514;-58
2021/05/19 05:52:39;;;;;;;1999.90;999.90;;;8.60;99.90;;;;;;5095349;28;20171;-56
2021/05/19 05:55:06;;;;;;;1999.90;999.90;;;8.50;99.90;;;;;;5094979;28;20195;-56
2021/05/19 05:57:33;;;;;;;1999.90;999.90;;;8.50;99.90;;;;;;5095088;28;20179;-57
2021/05/19 06:00:00;;;;;;;1999.90;999.90;;;8.50;99.90;;;;;;5095227;28;20223;-55
2021/05/19 06:02:27;;;;;;;1999.90;999.90;;;8.50;99.90;;;;;;5095097;28;20579;-54
2021/05/19 06:04:54;;;;;;;1999.90;999.90;;;8.60;99.90;;;;;;5094759;28;20680;-60
2021/05/19 06:07:20;;;;;;;1999.90;999.90;;;8.70;99.90;;;;;;5094987;28;20164;-61
2021/05/19 06:09:53;;;;;;;1999.90;999.90;;;8.80;99.90;;;;;;5093817;28;20563;-51
2021/05/19 06:12:21;;;;;;;1999.90;999.90;;;8.90;99.90;;;;;;5094821;28;20221;-55
2021/05/19 06:14:48;;;;;;;1999.90;999.90;;;9.00;99.90;;;;;;5090988;28;20681;-53
2021/05/19 06:17:15;;;;;;;1999.90;999.90;;;9.20;99.90;;;;;;5094256;28;20206;-57
2021/05/19 06:19:43;;;;;;;1999.90;999.90;;;9.30;99.90;;;;;;5094447;28;20255;-52
2021/05/19 06:22:10;;;;;;;1999.90;999.90;;;9.40;99.90;;;;;;5094346;28;20174;-54
2021/05/19 06:24:37;;;;;;;1999.90;999.90;;;9.50;99.90;;;;;;5094066;28;20674;-64
2021/05/19 06:27:04;;;;;;;1999.90;999.90;;;9.50;99.90;;;;;;5094421;28;20172;-61
2021/05/19 06:29:31;;;;;;;1999.90;999.90;;;9.50;99.90;;;;;;5094282;28;20689;-60
2021/05/19 06:31:58;;;;;;;1999.90;999.90;;;9.50;99.90;;;;;;5094361;28;20212;-56
2021/05/19 06:34:25;;;;;;;1999.90;999.90;;;9.60;99.90;;;;;;5094198;28;20192;-49
2021/05/19 06:36:52;;;;;;;1999.90;999.90;;;9.60;99.90;;;;;;5094113;28;20176;-53
2021/05/19 06:39:19;;;;;;;1999.90;999.90;;;9.60;99.90;;;;;;5093834;28;20167;-52
2021/05/19 06:41:48;;;;;;;1999.90;999.90;;;9.80;99.90;;;;;;5093751;28;20171;-51
2021/05/19 06:44:16;;;;;;;1999.90;999.90;;;9.90;99.90;;;;;;5075602;28;20178;-53
2021/05/19 06:46:44;;;;;;;1999.90;999.90;;;9.90;99.90;;;;;;5093344;28;20168;-52
2021/05/19 06:49:11;;;;;;;1999.90;999.90;;;10.00;99.90;;;;;;5093794;28;20637;-54
2021/05/19 06:51:41;;;;;;;1999.90;999.90;;;10.20;99.90;;;;;;5093937;28;20183;-47
2021/05/19 06:54:07;;;;;;;1999.90;999.90;;;10.30;99.90;;;;;;5093531;28;20172;-61
2021/05/19 06:56:34;;;;;;;1999.90;999.90;;;10.60;99.90;;;;;;5094190;28;20509;-54
2021/05/19 06:59:01;;;;;;;1999.90;999.90;;;10.70;99.90;;;;;;5093617;28;20167;-57
2021/05/19 07:01:29;;;;;;;1999.90;999.90;;;10.80;99.90;;;;;;5093595;28;20221;-58
2021/05/19 07:03:56;;;;;;;1999.90;999.90;;;11.00;99.90;;;;;;5093803;28;20163;-59
2021/05/19 07:06:23;;;;;;;1999.90;999.90;;;11.00;99.90;;;;;;5075443;28;20213;-55
2021/05/19 07:08:50;;;;;;;1999.90;999.90;;;11.10;99.90;;;;;;5093761;28;20193;-58
2021/05/19 07:11:17;;;;;;;1999.90;999.90;;;11.30;99.90;;;;;;5093456;28;20160;-56
2021/05/19 07:13:43;;;;;;;1999.90;999.90;;;11.40;99.90;;;;;;5075194;28;20167;-59
2021/05/19 07:16:12;;;;;;;1999.90;999.90;;;11.70;99.90;;;;;;5093383;28;20575;-46
2021/05/19 07:18:38;;;;;;;1999.90;999.90;;;12.20;99.90;;;;;;5093281;28;20254;-47
2021/05/19 07:21:05;;;;;;;1999.90;999.90;;;13.00;99.90;;;;;;5093601;28;20566;-47
2021/05/19 07:23:32;;;;;;;1999.90;999.90;;;13.40;99.90;;;;;;5092911;28;20190;-55
2021/05/19 07:25:59;;;;;;;1999.90;999.90;;;14.20;99.90;;;;;;5092870;28;20267;-61
2021/05/19 07:28:25;;;;;;;1999.90;999.90;;;14.70;99.90;;;;;;5093086;28;20183;-61
2021/05/19 07:30:52;;;;;;;1999.90;999.90;;;14.90;99.90;;;;;;5093015;28;20179;-45
2021/05/19 07:33:19;;;;;;;1999.90;999.90;;;14.80;99.90;;;;;;5092945;28;20177;-50
2021/05/19 07:35:46;;;;;;;1999.90;999.90;;;14.80;99.90;;;;;;5092835;28;20203;-47
2021/05/19 07:38:13;;;;;;;1999.90;999.90;;;14.70;99.90;;;;;;5092628;28;20232;-46
2021/05/19 07:40:41;;;;;;;1999.90;999.90;;;14.90;99.90;;;;;;5092790;28;20175;-47
2021/05/19 07:43:08;;;;;;;1999.90;999.90;;;15.10;99.90;;;;;;5092901;28;20162;-57
2021/05/19 07:45:36;;;;;;;1999.90;999.90;;;15.10;99.90;;;;;;5092925;28;20171;-59
2021/05/19 07:48:03;;;;;;;1999.90;999.90;;;14.70;99.90;;;;;;5092947;28;20167;-51
2021/05/19 07:50:30;;;;;;;1999.90;999.90;;;14.60;99.90;;;;;;5092707;28;20224;-55
2021/05/19 07:52:56;;;;;;;1999.90;999.90;;;14.40;99.90;;;;;;5092431;28;20205;-56
2021/05/19 07:55:40;;;;;;;1999.90;999.90;;;14.30;99.90;;;;;;5092811;28;20215;-61
2021/05/19 07:58:19;;;;;;;1999.90;999.90;;;14.20;99.90;;;;;;5092439;28;20163;-52
2021/05/19 08:01:43;;;;;;;1999.90;999.90;;;14.20;99.90;;;;;;5092522;28;20193;-50
2021/05/19 08:03:35;;;;;;;1999.90;999.90;;;14.30;99.90;;;;;;5080790;28;20225;-53
2021/05/19 08:06:03;;;;;;;1999.90;999.90;;;14.20;99.90;;;;;;5092500;28;20174;-64
2021/05/19 08:08:29;;;;;;;1999.90;999.90;;;14.30;99.90;;;;;;5092212;28;20640;-60
2021/05/19 08:10:58;;;;;;;1999.90;999.90;;;14.40;99.90;;;;;;5092273;28;20177;-58
2021/05/19 08:13:24;;;;;;;1999.90;999.90;;;14.40;99.90;;;;;;5091814;28;20180;-58
2021/05/19 08:15:51;;;;;;;1999.90;999.90;;;14.40;99.90;;;;;;5091800;28;20359;-58
2021/05/19 08:18:19;;;;;;;1999.90;999.90;;;14.60;99.90;;;;;;5091912;28;20182;-55
2021/05/19 08:20:46;;;;;;;1999.90;999.90;;;14.90;99.90;;;;;;5092295;28;20217;-61
2021/05/19 08:23:13;;;;;;;1999.90;999.90;;;15.40;99.90;;;;;;5092092;28;20518;-58
2021/05/19 08:25:40;;;;;;;1999.90;999.90;;;15.40;99.90;;;;;;5092289;28;20211;-60
2021/05/19 08:28:06;;;;;;;1999.90;999.90;;;15.30;99.90;;;;;;5091586;28;20164;-62
2021/05/19 08:30:33;;;;;;;1999.90;999.90;;;15.10;99.90;;;;;;5092326;28;20166;-58
2021/05/19 08:33:00;;;;;;;1999.90;999.90;;;15.10;99.90;;;;;;5092094;28;20242;-58
2021/05/19 08:35:26;;;;;;;1999.90;999.90;;;15.10;99.90;;;;;;5092154;28;20203;-55
2021/05/19 08:37:53;;;;;;;1999.90;999.90;;;15.10;99.90;;;;;;5091810;28;20171;-52
2021/05/19 08:40:20;;;;;;;1999.90;999.90;;;15.10;99.90;;;;;;5092205;28;20233;-57
2021/05/19 08:42:47;;;;;;;1999.90;999.90;;;15.20;99.90;;;;;;5091815;28;20171;-57
2021/05/19 08:45:15;;;;;;;1999.90;999.90;;;15.20;99.90;;;;;;5092069;28;20645;-59
2021/05/19 08:47:42;;;;;;;1999.90;999.90;;;15.40;99.90;;;;;;5092031;28;20178;-58
2021/05/19 08:50:10;;;;;;;1999.90;999.90;;;15.60;99.90;;;;;;5091811;28;20225;-59
2021/05/19 08:52:41;;;;;;;1999.90;999.90;;;15.70;99.90;;;;;;5091662;28;20171;-57
2021/05/19 08:55:19;;;;;;;1999.90;999.90;;;15.80;99.90;;;;;;5091662;28;20662;-56
2021/05/19 08:57:46;;;;;;;1999.90;999.90;;;15.80;99.90;;;;;;5094648;28;20519;-56
2021/05/19 09:00:14;;;;;;;1999.90;999.90;;;15.90;99.90;;;;;;5095734;28;20187;-58
2021/05/19 09:02:41;;;;;;;1999.90;999.90;;;15.90;99.90;;;;;;5077113;28;20176;-60
2021/05/19 09:05:09;;;;;;;1999.90;999.90;;;16.00;99.90;;;;;;5095582;28;20203;-55
2021/05/19 09:07:37;;;;;;;1999.90;999.90;;;16.40;99.90;;;;;;5095721;28;20164;-51
2021/05/19 09:10:17;;;;;;;1999.90;999.90;;;16.50;99.90;;;;;;5095679;28;20182;-52
2021/05/19 09:12:44;;;;;;;1999.90;999.90;;;16.60;99.90;;;;;;5096061;28;20707;-56
2021/05/19 09:15:13;;;;;;;1999.90;999.90;;;16.70;99.90;;;;;;5095535;28;20664;-58
2021/05/19 09:17:40;;;;;;;1999.90;999.90;;;16.70;99.90;;;;;;5095470;28;20178;-47
2021/05/19 09:20:10;;;;;;;1999.90;999.90;;;17.20;99.90;;;;;;5095631;28;20208;-56
2021/05/19 09:22:45;;;;;;;1999.90;999.90;;;17.80;99.20;;;;;;5095790;28;20683;-58
2021/05/19 09:25:27;;;;;;;1999.90;999.90;;;18.10;97.90;;;;;;5095157;28;20280;-61
2021/05/19 09:27:59;;;;;;;1999.90;999.90;;;18.20;95.00;;;;;;5095173;28;20180;-55
2021/05/19 09:30:39;;;;;;;1999.90;999.90;;;18.90;94.50;;;;;;5095257;28;20198;-51
2021/05/19 09:33:18;;;;;;;1999.90;999.90;;;19.40;94.20;;;;;;5095090;28;20600;-53
2021/05/19 09:35:46;;;;;;;1999.90;999.90;;;19.30;91.40;;;;;;5094986;28;20619;-56
2021/05/19 09:38:30;;;;;;;1999.90;999.90;;;19.00;91.60;;;;;;5094975;28;20160;-59
2021/05/19 09:41:16;;;;;;;1999.90;999.90;;;18.90;92.70;;;;;;5094583;28;20225;-58
2021/05/19 09:43:44;;;;;;;1999.90;999.90;;;19.00;91.50;;;;;;5094805;28;20522;-59
2021/05/19 09:46:53;;;;;;;1999.90;999.90;;;18.90;91.90;;;;;;5094858;28;20178;-59
2021/05/19 09:49:23;;;;;;;1999.90;999.90;;;18.60;91.80;;;;;;5086642;28;20195;-53
2021/05/19 09:51:52;;;;;;;1999.90;999.90;;;18.90;91.70;;;;;;5094989;28;20618;-51
2021/05/19 09:54:32;;;;;;;1999.90;999.90;;;19.10;90.40;;;;;;5095275;28;20202;-57
2021/05/19 09:57:04;;;;;;;1999.90;999.90;;;19.20;89.90;;;;;;5094994;28;20637;-50
2021/05/19 09:59:31;;;;;;;1999.90;999.90;;;19.20;89.30;;;;;;5094438;28;20631;-50
2021/05/19 10:02:02;;;;;;;1999.90;999.90;;;19.40;88.70;;;;;;5094649;28;20659;-55
2021/05/19 10:04:35;;;;;;;1999.90;999.90;;;19.70;90.40;;;;;;5077272;28;20172;-57
2021/05/19 10:07:03;;;;;;;1999.90;999.90;;;19.60;89.10;;;;;;5094511;28;20515;-43
2021/05/19 10:09:30;;;;;;;1999.90;999.90;;;20.10;88.70;;;;;;5094614;28;20337;-60
2021/05/19 10:11:58;;;;;;;1999.90;999.90;;;20.00;85.40;;;;;;5094598;28;20195;-61
2021/05/19 10:14:26;;;;;;;1999.90;999.90;;;19.70;87.80;;;;;;5094522;28;20188;-57
2021/05/19 10:17:14;;;;;;;1999.90;999.90;;;19.70;84.80;;;;;;5094580;28;20168;-45
2021/05/19 10:19:53;;;;;;;1999.90;999.90;;;20.20;86.80;;;;;;5094421;28;20164;-43
2021/05/19 10:22:21;;;;;;;1999.90;999.90;;;20.60;83.70;;;;;;5094970;28;20246;-49
2021/05/19 10:24:53;;;;;;;1999.90;999.90;;;20.70;81.60;;;;;;5094561;28;20223;-55
2021/05/19 10:27:21;;;;;;;1999.90;999.90;;;20.70;81.70;;;;;;5094465;28;20580;-45
2021/05/19 10:29:48;;;;;;;1999.90;999.90;;;20.80;82.60;;;;;;5094517;28;20164;-53
2021/05/19 10:32:33;;;;;;;1999.90;999.90;;;20.80;82.60;;;;;;5094202;28;20177;-60
2021/05/19 10:35:08;;;;;;;1999.90;999.90;;;20.80;83.20;;;;;;5094049;28;20571;-61
2021/05/19 10:37:50;;;;;;;1999.90;999.90;;;20.80;84.10;;;;;;5094492;28;20155;-52
2021/05/19 10:40:16;;;;;;;1999.90;999.90;;;20.60;82.90;;;;;;5094439;28;20235;-54
2021/05/19 10:42:51;;;;;;;1999.90;999.90;;;20.40;84.20;;;;;;5094374;28;20570;-57
2021/05/19 10:45:19;;;;;;;1999.90;999.90;;;20.40;84.70;;;;;;5094418;28;20552;-50
2021/05/19 10:47:49;;;;;;;1999.90;999.90;;;20.40;85.30;;;;;;5093942;28;20183;-55
2021/05/19 10:50:35;;;;;;;1999.90;999.90;;;20.30;86.40;;;;;;5093796;28;20175;-50
2021/05/19 10:58:52;;;;;;;1999.90;999.90;;;20.30;84.80;;;;;;5093858;28;20583;-54
2021/05/19 11:01:55;;;;;;;1999.90;999.90;;;20.40;84.80;;;;;;5093727;28;20515;-54
2021/05/19 11:04:26;;;;;;;1999.90;999.90;;;20.50;84.80;;;;;;5011359;28;20675;-55
2021/05/19 11:07:05;;;;;;;1999.90;999.90;;;20.60;82.40;;;;;;5080921;28;20252;-56
2021/05/19 11:09:34;;;;;;;1999.90;999.90;;;20.80;81.40;;;;;;5093578;28;20281;-58
2021/05/19 11:14:49;;;;;;;1999.90;999.90;;;21.40;81.80;;;;;;5093270;28;20203;-49
2021/05/19 11:17:29;;;;;;;1999.90;999.90;;;21.60;77.10;;;;;;5093318;28;20257;-44
2021/05/19 11:19:55;;;;;;;1999.90;999.90;;;21.80;77.50;;;;;;5092665;28;20160;-44
2021/05/19 11:22:22;;;;;;;1999.90;999.90;;;21.80;75.50;;;;;;5075584;28;20618;-44
2021/05/19 11:24:56;;;;;;;1999.90;999.90;;;21.90;73.40;;;;;;5074862;28;20219;-47
2021/05/19 11:27:26;;;;;;;1999.90;999.90;;;21.80;73.80;;;;;;5093195;28;20175;-49
2021/05/19 11:29:54;;;;;;;1999.90;999.90;;;21.70;73.90;;;;;;5092998;28;20175;-47
2021/05/19 11:32:27;;;;;;;1999.90;999.90;;;21.70;73.00;;;;;;5092906;28;20254;-47
2021/05/19 11:34:54;;;;;;;1999.90;999.90;;;21.90;71.50;;;;;;5092672;28;20257;-48
2021/05/19 11:37:22;;;;;;;1999.90;999.90;;;21.80;71.80;;;;;;5092982;28;20246;-46
2021/05/19 11:39:50;;;;;;;1999.90;999.90;;;22.00;71.90;;;;;;5093144;28;20168;-48
2021/05/19 11:42:28;;;;;;;1999.90;999.90;;;21.80;71.30;;;;;;5093162;28;20169;-48
2021/05/19 11:45:03;;;;;;;1999.90;999.90;;;21.60;73.20;;;;;;5093191;28;20172;-49
2021/05/19 11:47:34;;;;;;;1999.90;999.90;;;21.60;75.80;;;;;;5092934;28;20248;-50
2021/05/19 11:50:25;;;;;;;1999.90;999.90;;;21.40;76.50;;;;;;5092379;28;20171;-48
2021/05/19 11:52:57;;;;;;;1999.90;999.90;;;21.20;75.90;;;;;;5083661;28;20645;-51
2021/05/19 11:55:55;;;;;;;1999.90;999.90;;;21.10;76.60;;;;;;5090713;28;20208;-56
2021/05/19 11:58:28;;;;;;;1999.90;999.90;;;21.10;78.10;;;;;;5091063;28;20187;-54
2021/05/19 12:01:15;;;;;;;1999.90;999.90;;;21.10;77.90;;;;;;5092567;28;20160;-52
2021/05/19 12:03:45;;;;;;;1999.90;999.90;;;21.10;76.00;;;;;;5091387;28;20167;-49
2021/05/19 12:06:13;;;;;;;1999.90;999.90;;;21.10;76.70;;;;;;5091844;28;20211;-50
2021/05/19 12:08:48;;;;;;;1999.90;999.90;;;21.00;76.70;;;;;;5092597;28;20667;-54
2021/05/19 12:11:20;;;;;;;1999.90;999.90;;;21.10;77.20;;;;;;5092832;28;20159;-45
2021/05/19 12:13:59;;;;;;;1999.90;999.90;;;21.40;76.80;;;;;;5092444;28;20175;-46
2021/05/19 12:16:46;;;;;;;1999.90;999.90;;;21.60;76.40;;;;;;5092435;28;20188;-45
2021/05/19 12:19:16;;;;;;;1999.90;999.90;;;21.90;73.70;;;;;;5092583;28;20151;-47
2021/05/19 12:22:06;;;;;;;1999.90;999.90;;;22.00;71.30;;;;;;5092401;28;20190;-46